Circle Line Brooklyn — WDE8160 — position and weather

sailwx.info

Track history (hours):
 
Tides and Currents Weather Stations Pressure Air Temp Water Temp Dewpoint Dewpoint Depression Visibility Wind Speed Wind Dir Waves Ship Positions

Circle Line Brooklyn

Owner: Circle Line Sight Seeing Yachts Inc., New York, NY. More information available from US FCC via Universal Licensing System and Coast Guard Vessel Documentation Center.

Last reported at 2017-Jul-21 18:39 UTC. Time now 2017-Jul-21 19:00 UTC.
Position N 40°46' W 073°57'.

MMSI: 367402250.

Date/timePositionNaut miles runAvg speedWind from/ knotsBaromVisibWave heightAir tempDewpointWater temp
2017-Jul-21 18:39N 40°46' W 073°57'212.4
2017-Jul-21 18:30N 40°44' W 073°58'4 7.7
2017-Jul-21 18:00N 40°42' W 074°02'4 8.5
2017-Jul-21 17:30N 40°46' W 074°00'0 0.0
2017-Jul-21 17:00N 40°46' W 074°00'0 0.0
2017-Jul-21 16:30N 40°46' W 074°00'715.0
2017-Jul-21 16:00N 40°52' W 073°56'7 8.6
2017-Jul-21 15:12N 40°46' W 073°57'2 9.4
2017-Jul-21 15:00N 40°44' W 073°58'4 8.4
2017-Jul-21 14:30N 40°41' W 074°02'5 9.4
2017-Jul-21 14:00N 40°46' W 074°00'0 0.0
2017-Jul-21 13:30N 40°46' W 074°00'0 0.0
2017-Jul-21 02:51N 40°46' W 074°00'0 0.0
2017-Jul-21 02:30N 40°46' W 074°00'1 2.1
2017-Jul-21 01:59N 40°45' W 074°01'3 6.2
2017-Jul-21 01:30N 40°42' W 074°01'4 7.4
2017-Jul-21 01:00N 40°45' W 073°58'4 7.2
2017-Jul-21 00:30N 40°42' W 074°00'2 3.8
2017-Jul-21 00:00N 40°44' W 074°01'2 4.2
2017-Jul-20 23:28N 40°46' W 074°00'0 0.0
2017-Jul-20 22:58N 40°46' W 074°00'0 0.0
2017-Jul-20 22:28N 40°46' W 074°00'0 0.0
2017-Jul-20 21:58N 40°46' W 074°00'0 0.0
2017-Jul-20 21:28N 40°46' W 074°00'0 0.0
2017-Jul-20 20:58N 40°46' W 074°00'4 8.4
2017-Jul-20 20:30N 40°42' W 074°00'1 2.6
2017-Jul-20 20:01N 40°41' W 074°01'1 2.3
2017-Jul-20 19:30N 40°41' W 074°03'5 9.9
2017-Jul-20 19:00N 40°46' W 074°00'0 0.0
2017-Jul-20 18:28N 40°46' W 074°00'0 0.0
2017-Jul-20 17:58N 40°46' W 074°00'0 0.0
2017-Jul-20 17:28N 40°46' W 074°00'0 0.2
2017-Jul-20 17:00N 40°46' W 074°00'2 2.1
2017-Jul-20 15:51N 40°46' W 073°57'411.3
2017-Jul-20 15:30N 40°42' W 073°59'3 5.7
2017-Jul-20 15:00N 40°45' W 074°01'1 0.0
2017-Jul-18 19:59N 40°46' W 074°00'4 8.3
2017-Jul-18 19:30N 40°49' W 073°58'4 3.5
2017-Jul-18 18:26N 40°46' W 073°57'613.9
2017-Jul-18 18:01N 40°41' W 074°02'5 9.5
2017-Jul-18 17:30N 40°46' W 074°00'0 0.0
2017-Jul-18 17:00N 40°46' W 074°00'0 0.0
2017-Jul-18 16:30N 40°46' W 074°00'510.9
2017-Jul-18 16:00N 40°51' W 073°57'5 5.6
2017-Jul-18 15:06N 40°45' W 073°57'113.5
2017-Jul-18 15:00N 40°44' W 073°58'2 2.1
2017-Jul-18 13:59N 40°46' W 074°00'0 0.0
2017-Jul-18 13:29N 40°46' W 074°00'0 0.0
2017-Jul-18 01:16N 40°46' W 074°00'0 0.0
2017-Jul-18 01:00N 40°46' W 074°00'4 8.4
2017-Jul-18 00:31N 40°42' W 074°02'4 7.0
2017-Jul-18 00:00N 40°44' W 073°58'3 6.2
2017-Jul-17 23:30N 40°42' W 074°01'4 7.4
2017-Jul-17 22:59N 40°46' W 074°00'0 0.0
2017-Jul-17 22:29N 40°46' W 074°00'0 0.0
2017-Jul-17 21:59N 40°46' W 074°00'0 0.0
2017-Jul-17 21:26N 40°46' W 074°00'0 0.0
2017-Jul-17 20:59N 40°46' W 074°00'0 0.0
2017-Jul-17 20:26N 40°46' W 074°00'0 0.0
2017-Jul-17 19:58N 40°46' W 074°00'4 8.5
2017-Jul-17 19:30N 40°49' W 073°58'4 3.8
2017-Jul-17 18:30N 40°46' W 073°57'611.7
2017-Jul-17 18:00N 40°41' W 074°02'5 9.3
2017-Jul-17 17:29N 40°46' W 074°00'0 0.0
2017-Jul-17 16:56N 40°46' W 074°00'0 0.0
2017-Jul-17 16:29N 40°46' W 074°00'5 9.6
2017-Jul-17 16:00N 40°50' W 073°57'1 2.1
2017-Jul-17 15:22N 40°49' W 073°56'412.2
2017-Jul-17 15:00N 40°45' W 073°58'5 9.7
2017-Jul-17 14:30N 40°42' W 074°02'5 8.9
2017-Jul-17 14:00N 40°46' W 074°00'0 0.0
2017-Jul-17 13:24N 40°46' W 074°00'0 0.0
2017-Jul-17 13:00N 40°46' W 074°00'0 0.0
2017-Jul-16 21:45N 40°46' W 074°00'0 0.2
2017-Jul-16 21:30N 40°46' W 074°00'4 8.1
2017-Jul-16 21:01N 40°42' W 074°02'4 7.9
2017-Jul-16 20:30N 40°46' W 074°00'0 0.0
2017-Jul-16 20:00N 40°46' W 074°00'0 0.0
2017-Jul-16 19:29N 40°46' W 074°00'4 7.6
2017-Jul-16 19:00N 40°42' W 074°00'2 4.0
2017-Jul-16 18:31N 40°41' W 074°03'5 9.6
2017-Jul-16 18:00N 40°46' W 074°00'0 0.0
2017-Jul-16 17:28N 40°46' W 074°00'0 0.0
2017-Jul-16 16:58N 40°46' W 074°00'0 0.0
2017-Jul-16 16:28N 40°46' W 074°00'0 0.0
2017-Jul-16 15:58N 40°46' W 074°00'0 0.0
2017-Jul-16 15:28N 40°46' W 074°00'0 0.0
2017-Jul-16 02:59N 40°46' W 074°00'0 0.6
2017-Jul-16 02:30N 40°46' W 074°00'3 7.0
2017-Jul-16 02:00N 40°42' W 074°01'3 5.8
2017-Jul-16 01:30N 40°44' W 073°58'2 4.0
2017-Jul-16 00:59N 40°46' W 073°57'4 9.1
2017-Jul-16 00:30N 40°42' W 073°60'3 5.6
2017-Jul-16 00:01N 40°40' W 074°03'4 7.3
2017-Jul-15 23:30N 40°37' W 074°03'510.9
2017-Jul-15 23:00N 40°42' W 074°02'4 7.6
2017-Jul-15 22:30N 40°46' W 074°00'0 0.0
2017-Jul-15 21:59N 40°46' W 074°00'0 0.0
2017-Jul-15 21:29N 40°46' W 074°00'0 0.0
2017-Jul-15 20:53N 40°46' W 074°00'0 0.0
2017-Jul-15 20:29N 40°46' W 074°00'0 0.0
2017-Jul-15 19:59N 40°46' W 074°00'0 0.0
2017-Jul-15 19:29N 40°46' W 074°00'0 0.0
2017-Jul-15 18:59N 40°46' W 074°00'0 0.0
2017-Jul-15 18:29N 40°46' W 074°00'0 0.0
2017-Jul-15 18:00N 40°46' W 074°00'3 6.8
2017-Jul-15 17:31N 40°42' W 073°59'3 5.5
2017-Jul-15 17:00N 40°41' W 074°02'5 9.7
2017-Jul-15 16:31N 40°46' W 074°00'0 0.0
2017-Jul-15 15:59N 40°46' W 074°00'0 0.2
2017-Jul-15 15:30N 40°46' W 074°00'5 9.2
2017-Jul-15 15:01N 40°42' W 074°02'4 0.3
2017-Jul-15 02:04N 40°46' W 074°00'0 0.1
2017-Jul-15 02:00N 40°46' W 074°00'2 3.7
2017-Jul-15 01:30N 40°44' W 074°01'2 4.6
2017-Jul-15 01:00N 40°43' W 073°58'2 3.6
2017-Jul-15 00:30N 40°42' W 074°00'1 3.0
2017-Jul-15 00:00N 40°43' W 074°02'3 5.9
2017-Jul-14 23:30N 40°46' W 074°00'0 0.0
2017-Jul-14 22:55N 40°46' W 074°00'0 0.0
2017-Jul-14 22:29N 40°46' W 074°00'0 0.0
2017-Jul-14 21:55N 40°46' W 074°00'0 0.0
2017-Jul-14 21:29N 40°46' W 074°00'0 0.0
2017-Jul-14 20:59N 40°46' W 074°00'0 0.0
2017-Jul-14 20:28N 40°46' W 074°00'1 2.1
2017-Jul-14 20:00N 40°47' W 073°60'4 3.0
2017-Jul-14 18:49N 40°48' W 073°56'411.2
2017-Jul-14 18:29N 40°45' W 073°58'510.0
2017-Jul-14 18:01N 40°41' W 074°02'5 8.7
2017-Jul-14 17:28N 40°46' W 074°00'0 0.0
2017-Jul-14 16:58N 40°46' W 074°00'0 0.0
2017-Jul-14 16:28N 40°46' W 074°00'4 9.3
2017-Jul-14 16:01N 40°50' W 073°58'1 2.0
2017-Jul-14 15:18N 40°49' W 073°56'411.7
2017-Jul-14 14:58N 40°45' W 073°57'612.5
2017-Jul-14 14:30N 40°41' W 074°03'5 9.5
2017-Jul-14 13:59N 40°46' W 074°00'0 0.0
2017-Jul-14 13:29N 40°46' W 074°00'0 0.0
2017-Jul-14 12:59N 40°46' W 074°00'0 0.0
2017-Jul-14 12:29N 40°46' W 074°00'0 0.0
2017-Jul-13 22:47N 40°46' W 074°00'0 0.0
2017-Jul-13 22:30N 40°46' W 074°00'0 0.0
2017-Jul-13 22:00N 40°46' W 074°00'0 0.0
2017-Jul-13 21:30N 40°46' W 074°00'4 7.2
2017-Jul-13 21:00N 40°42' W 074°00'2 3.0
2017-Jul-13 20:31N 40°42' W 074°02'4 8.0
2017-Jul-13 20:00N 40°46' W 074°00'0 0.0
2017-Jul-13 19:29N 40°46' W 074°00'0 0.0
2017-Jul-13 19:00N 40°46' W 074°00'0 0.0
2017-Jul-13 18:30N 40°46' W 074°00'4 7.9
2017-Jul-13 18:00N 40°42' W 074°01'7 9.8
2017-Jul-13 17:19N 40°47' W 073°56'411.5
2017-Jul-13 17:00N 40°44' W 073°58'4 7.3
2017-Jul-13 16:30N 40°42' W 074°02'4 8.1
2017-Jul-13 16:00N 40°46' W 074°00'0 0.0
2017-Jul-13 15:30N 40°46' W 074°00'0 0.0
2017-Jul-12 20:48N 40°46' W 074°01'412.3
2017-Jul-12 20:30N 40°42' W 074°01'2 3.6
2017-Jul-12 20:00N 40°40' W 074°01'1 2.6
2017-Jul-12 19:30N 40°41' W 074°02'5 9.2
2017-Jul-12 18:58N 40°46' W 074°00'0 0.0
2017-Jul-12 18:28N 40°46' W 074°00'0 0.0
2017-Jul-12 18:00N 40°46' W 074°00'3 6.3
2017-Jul-12 17:29N 40°43' W 073°58'3 6.7
2017-Jul-12 17:00N 40°42' W 074°02'5 9.0
2017-Jul-12 16:30N 40°46' W 074°00'0 0.0
2017-Jul-12 16:00N 40°46' W 074°00'0 0.0
2017-Jul-12 15:30N 40°46' W 074°00'4 8.8
2017-Jul-12 15:00N 40°42' W 074°02'4 4.3
2017-Jul-12 13:58N 40°46' W 074°00'0 0.0
2017-Jul-12 01:51N 40°46' W 074°00'0 0.0
2017-Jul-12 01:30N 40°46' W 074°00'2 3.3
2017-Jul-12 01:00N 40°44' W 074°01'4 7.0
2017-Jul-12 00:30N 40°41' W 074°02'4 8.8
2017-Jul-12 00:01N 40°44' W 073°58'2 3.2
2017-Jul-11 23:30N 40°45' W 073°57'5 9.3
2017-Jul-11 23:00N 40°42' W 074°01'4 7.2
2017-Jul-11 22:30N 40°46' W 074°00'0 0.0
2017-Jul-11 22:00N 40°46' W 074°00'0 0.0
2017-Jul-11 21:30N 40°46' W 074°00'0 0.0
2017-Jul-11 21:00N 40°46' W 074°00'0 0.0
2017-Jul-11 20:30N 40°46' W 074°00'0 0.0
2017-Jul-11 20:01N 40°46' W 074°00'0 0.0
2017-Jul-11 19:31N 40°46' W 074°00'0 0.0
2017-Jul-11 19:01N 40°46' W 074°00'  
Track history (hours):
 
Tides and Currents Weather Stations Pressure Air Temp Water Temp Dewpoint Dewpoint Depression Visibility Wind Speed Wind Dir Waves Ship Positions

Circle Line Brooklyn

Owner: Circle Line Sight Seeing Yachts Inc., New York, NY. More information available from US FCC via Universal Licensing System and Coast Guard Vessel Documentation Center.

Last reported at 2017-Jul-21 18:39 UTC. Time now 2017-Jul-21 19:00 UTC.
Position N 40°46' W 073°57'.

MMSI: 367402250.

Date/timePositionNaut miles runAvg speedWind from/ knotsBaromVisibWave heightAir tempDewpointWater temp
2017-Jul-21 18:39N 40°46' W 073°57'212.4
2017-Jul-21 18:30N 40°44' W 073°58'4 7.7
2017-Jul-21 18:00N 40°42' W 074°02'4 8.5
2017-Jul-21 17:30N 40°46' W 074°00'0 0.0
2017-Jul-21 17:00N 40°46' W 074°00'0 0.0
2017-Jul-21 16:30N 40°46' W 074°00'715.0
2017-Jul-21 16:00N 40°52' W 073°56'7 8.6
2017-Jul-21 15:12N 40°46' W 073°57'2 9.4
2017-Jul-21 15:00N 40°44' W 073°58'4 8.4
2017-Jul-21 14:30N 40°41' W 074°02'5 9.4
2017-Jul-21 14:00N 40°46' W 074°00'0 0.0
2017-Jul-21 13:30N 40°46' W 074°00'0 0.0
2017-Jul-21 02:51N 40°46' W 074°00'0 0.0
2017-Jul-21 02:30N 40°46' W 074°00'1 2.1
2017-Jul-21 01:59N 40°45' W 074°01'3 6.2
2017-Jul-21 01:30N 40°42' W 074°01'4 7.4
2017-Jul-21 01:00N 40°45' W 073°58'4 7.2
2017-Jul-21 00:30N 40°42' W 074°00'2 3.8
2017-Jul-21 00:00N 40°44' W 074°01'2 4.2
2017-Jul-20 23:28N 40°46' W 074°00'0 0.0
2017-Jul-20 22:58N 40°46' W 074°00'0 0.0
2017-Jul-20 22:28N 40°46' W 074°00'0 0.0
2017-Jul-20 21:58N 40°46' W 074°00'0 0.0
2017-Jul-20 21:28N 40°46' W 074°00'0 0.0
2017-Jul-20 20:58N 40°46' W 074°00'4 8.4
2017-Jul-20 20:30N 40°42' W 074°00'1 2.6
2017-Jul-20 20:01N 40°41' W 074°01'1 2.3
2017-Jul-20 19:30N 40°41' W 074°03'5 9.9
2017-Jul-20 19:00N 40°46' W 074°00'0 0.0
2017-Jul-20 18:28N 40°46' W 074°00'0 0.0
2017-Jul-20 17:58N 40°46' W 074°00'0 0.0
2017-Jul-20 17:28N 40°46' W 074°00'0 0.2
2017-Jul-20 17:00N 40°46' W 074°00'2 2.1
2017-Jul-20 15:51N 40°46' W 073°57'411.3
2017-Jul-20 15:30N 40°42' W 073°59'3 5.7
2017-Jul-20 15:00N 40°45' W 074°01'1 0.0
2017-Jul-18 19:59N 40°46' W 074°00'4 8.3
2017-Jul-18 19:30N 40°49' W 073°58'4 3.5
2017-Jul-18 18:26N 40°46' W 073°57'613.9
2017-Jul-18 18:01N 40°41' W 074°02'5 9.5
2017-Jul-18 17:30N 40°46' W 074°00'0 0.0
2017-Jul-18 17:00N 40°46' W 074°00'0 0.0
2017-Jul-18 16:30N 40°46' W 074°00'510.9
2017-Jul-18 16:00N 40°51' W 073°57'5 5.6
2017-Jul-18 15:06N 40°45' W 073°57'113.5
2017-Jul-18 15:00N 40°44' W 073°58'2 2.1
2017-Jul-18 13:59N 40°46' W 074°00'0 0.0
2017-Jul-18 13:29N 40°46' W 074°00'0 0.0
2017-Jul-18 01:16N 40°46' W 074°00'0 0.0
2017-Jul-18 01:00N 40°46' W 074°00'4 8.4
2017-Jul-18 00:31N 40°42' W 074°02'4 7.0
2017-Jul-18 00:00N 40°44' W 073°58'3 6.2
2017-Jul-17 23:30N 40°42' W 074°01'4 7.4
2017-Jul-17 22:59N 40°46' W 074°00'0 0.0
2017-Jul-17 22:29N 40°46' W 074°00'0 0.0
2017-Jul-17 21:59N 40°46' W 074°00'0 0.0
2017-Jul-17 21:26N 40°46' W 074°00'0 0.0
2017-Jul-17 20:59N 40°46' W 074°00'0 0.0
2017-Jul-17 20:26N 40°46' W 074°00'0 0.0
2017-Jul-17 19:58N 40°46' W 074°00'4 8.5
2017-Jul-17 19:30N 40°49' W 073°58'4 3.8
2017-Jul-17 18:30N 40°46' W 073°57'611.7
2017-Jul-17 18:00N 40°41' W 074°02'5 9.3
2017-Jul-17 17:29N 40°46' W 074°00'0 0.0
2017-Jul-17 16:56N 40°46' W 074°00'0 0.0
2017-Jul-17 16:29N 40°46' W 074°00'5 9.6
2017-Jul-17 16:00N 40°50' W 073°57'1 2.1
2017-Jul-17 15:22N 40°49' W 073°56'412.2
2017-Jul-17 15:00N 40°45' W 073°58'5 9.7
2017-Jul-17 14:30N 40°42' W 074°02'5 8.9
2017-Jul-17 14:00N 40°46' W 074°00'0 0.0
2017-Jul-17 13:24N 40°46' W 074°00'0 0.0
2017-Jul-17 13:00N 40°46' W 074°00'0 0.0
2017-Jul-16 21:45N 40°46' W 074°00'0 0.2
2017-Jul-16 21:30N 40°46' W 074°00'4 8.1
2017-Jul-16 21:01N 40°42' W 074°02'4 7.9
2017-Jul-16 20:30N 40°46' W 074°00'0 0.0
2017-Jul-16 20:00N 40°46' W 074°00'0 0.0
2017-Jul-16 19:29N 40°46' W 074°00'4 7.6
2017-Jul-16 19:00N 40°42' W 074°00'2 4.0
2017-Jul-16 18:31N 40°41' W 074°03'5 9.6
2017-Jul-16 18:00N 40°46' W 074°00'0 0.0
2017-Jul-16 17:28N 40°46' W 074°00'0 0.0
2017-Jul-16 16:58N 40°46' W 074°00'0 0.0
2017-Jul-16 16:28N 40°46' W 074°00'0 0.0
2017-Jul-16 15:58N 40°46' W 074°00'0 0.0
2017-Jul-16 15:28N 40°46' W 074°00'0 0.0
2017-Jul-16 02:59N 40°46' W 074°00'0 0.6
2017-Jul-16 02:30N 40°46' W 074°00'3 7.0
2017-Jul-16 02:00N 40°42' W 074°01'3 5.8
2017-Jul-16 01:30N 40°44' W 073°58'2 4.0
2017-Jul-16 00:59N 40°46' W 073°57'4 9.1
2017-Jul-16 00:30N 40°42' W 073°60'3 5.6
2017-Jul-16 00:01N 40°40' W 074°03'4 7.3
2017-Jul-15 23:30N 40°37' W 074°03'510.9
2017-Jul-15 23:00N 40°42' W 074°02'4 7.6
2017-Jul-15 22:30N 40°46' W 074°00'0 0.0
2017-Jul-15 21:59N 40°46' W 074°00'0 0.0
2017-Jul-15 21:29N 40°46' W 074°00'0 0.0
2017-Jul-15 20:53N 40°46' W 074°00'0 0.0
2017-Jul-15 20:29N 40°46' W 074°00'0 0.0
2017-Jul-15 19:59N 40°46' W 074°00'0 0.0
2017-Jul-15 19:29N 40°46' W 074°00'0 0.0
2017-Jul-15 18:59N 40°46' W 074°00'0 0.0
2017-Jul-15 18:29N 40°46' W 074°00'0 0.0
2017-Jul-15 18:00N 40°46' W 074°00'3 6.8
2017-Jul-15 17:31N 40°42' W 073°59'3 5.5
2017-Jul-15 17:00N 40°41' W 074°02'5 9.7
2017-Jul-15 16:31N 40°46' W 074°00'0 0.0
2017-Jul-15 15:59N 40°46' W 074°00'0 0.2
2017-Jul-15 15:30N 40°46' W 074°00'5 9.2
2017-Jul-15 15:01N 40°42' W 074°02'4 0.3
2017-Jul-15 02:04N 40°46' W 074°00'0 0.1
2017-Jul-15 02:00N 40°46' W 074°00'2 3.7
2017-Jul-15 01:30N 40°44' W 074°01'2 4.6
2017-Jul-15 01:00N 40°43' W 073°58'2 3.6
2017-Jul-15 00:30N 40°42' W 074°00'1 3.0
2017-Jul-15 00:00N 40°43' W 074°02'3 5.9
2017-Jul-14 23:30N 40°46' W 074°00'0 0.0
2017-Jul-14 22:55N 40°46' W 074°00'0 0.0
2017-Jul-14 22:29N 40°46' W 074°00'0 0.0
2017-Jul-14 21:55N 40°46' W 074°00'0 0.0
2017-Jul-14 21:29N 40°46' W 074°00'0 0.0
2017-Jul-14 20:59N 40°46' W 074°00'0 0.0
2017-Jul-14 20:28N 40°46' W 074°00'1 2.1
2017-Jul-14 20:00N 40°47' W 073°60'4 3.0
2017-Jul-14 18:49N 40°48' W 073°56'411.2
2017-Jul-14 18:29N 40°45' W 073°58'510.0
2017-Jul-14 18:01N 40°41' W 074°02'5 8.7
2017-Jul-14 17:28N 40°46' W 074°00'0 0.0
2017-Jul-14 16:58N 40°46' W 074°00'0 0.0
2017-Jul-14 16:28N 40°46' W 074°00'4 9.3
2017-Jul-14 16:01N 40°50' W 073°58'1 2.0
2017-Jul-14 15:18N 40°49' W 073°56'411.7
2017-Jul-14 14:58N 40°45' W 073°57'612.5
2017-Jul-14 14:30N 40°41' W 074°03'5 9.5
2017-Jul-14 13:59N 40°46' W 074°00'0 0.0
2017-Jul-14 13:29N 40°46' W 074°00'0 0.0
2017-Jul-14 12:59N 40°46' W 074°00'0 0.0
2017-Jul-14 12:29N 40°46' W 074°00'0 0.0
2017-Jul-13 22:47N 40°46' W 074°00'0 0.0
2017-Jul-13 22:30N 40°46' W 074°00'0 0.0
2017-Jul-13 22:00N 40°46' W 074°00'0 0.0
2017-Jul-13 21:30N 40°46' W 074°00'4 7.2
2017-Jul-13 21:00N 40°42' W 074°00'2 3.0
2017-Jul-13 20:31N 40°42' W 074°02'4 8.0
2017-Jul-13 20:00N 40°46' W 074°00'0 0.0
2017-Jul-13 19:29N 40°46' W 074°00'0 0.0
2017-Jul-13 19:00N 40°46' W 074°00'0 0.0
2017-Jul-13 18:30N 40°46' W 074°00'4 7.9
2017-Jul-13 18:00N 40°42' W 074°01'7 9.8
2017-Jul-13 17:19N 40°47' W 073°56'411.5
2017-Jul-13 17:00N 40°44' W 073°58'4 7.3
2017-Jul-13 16:30N 40°42' W 074°02'4 8.1
2017-Jul-13 16:00N 40°46' W 074°00'0 0.0
2017-Jul-13 15:30N 40°46' W 074°00'0 0.0
2017-Jul-12 20:48N 40°46' W 074°01'412.3
2017-Jul-12 20:30N 40°42' W 074°01'2 3.6
2017-Jul-12 20:00N 40°40' W 074°01'1 2.6
2017-Jul-12 19:30N 40°41' W 074°02'5 9.2
2017-Jul-12 18:58N 40°46' W 074°00'0 0.0
2017-Jul-12 18:28N 40°46' W 074°00'0 0.0
2017-Jul-12 18:00N 40°46' W 074°00'3 6.3
2017-Jul-12 17:29N 40°43' W 073°58'3 6.7
2017-Jul-12 17:00N 40°42' W 074°02'5 9.0
2017-Jul-12 16:30N 40°46' W 074°00'0 0.0
2017-Jul-12 16:00N 40°46' W 074°00'0 0.0
2017-Jul-12 15:30N 40°46' W 074°00'4 8.8
2017-Jul-12 15:00N 40°42' W 074°02'4 4.3
2017-Jul-12 13:58N 40°46' W 074°00'0 0.0
2017-Jul-12 01:51N 40°46' W 074°00'0 0.0
2017-Jul-12 01:30N 40°46' W 074°00'2 3.3
2017-Jul-12 01:00N 40°44' W 074°01'4 7.0
2017-Jul-12 00:30N 40°41' W 074°02'4 8.8
2017-Jul-12 00:01N 40°44' W 073°58'2 3.2
2017-Jul-11 23:30N 40°45' W 073°57'5 9.3
2017-Jul-11 23:00N 40°42' W 074°01'4 7.2
2017-Jul-11 22:30N 40°46' W 074°00'0 0.0
2017-Jul-11 22:00N 40°46' W 074°00'0 0.0
2017-Jul-11 21:30N 40°46' W 074°00'0 0.0
2017-Jul-11 21:00N 40°46' W 074°00'0 0.0
2017-Jul-11 20:30N 40°46' W 074°00'0 0.0
2017-Jul-11 20:01N 40°46' W 074°00'0 0.0
2017-Jul-11 19:31N 40°46' W 074°00'0 0.0
2017-Jul-11 19:01N 40°46' W 074°00'  

Dump ship's entire track history